Time;durP1;ratioP1;P1;durP2;ratioP2;P2;SDS_P1;SDS_P2;PMS_P1;PMS_P2;Temp;Humidity;BMP_temperature;BMP_pressure;BME280_temperature;BME280_humidity;BME280_pressure;Samples;Min_cycle;Max_cycle;Signal;HPM_P1;HPM_P2
2021/09/18 00:02:18;;;;;;;21.73;13.18;;;6.10;91.20;;;;;;5050565;28;20032;-81
2021/09/18 00:04:44;;;;;;;14.95;11.15;;;6.10;91.20;;;;;;5050659;28;20017;-81
2021/09/18 00:07:10;;;;;;;20.00;11.00;;;6.00;91.30;;;;;;5051329;28;20056;-82
2021/09/18 00:09:36;;;;;;;16.85;10.25;;;6.00;91.40;;;;;;5055893;28;20025;-80
2021/09/18 00:12:02;;;;;;;14.50;11.20;;;6.00;91.50;;;;;;5038532;28;20041;-81
2021/09/18 00:14:27;;;;;;;22.13;14.65;;;5.90;91.60;;;;;;5062840;28;20025;-80
2021/09/18 00:16:53;;;;;;;17.20;11.65;;;5.90;91.80;;;;;;5043655;28;20029;-83
2021/09/18 00:19:19;;;;;;;18.50;14.38;;;5.90;91.80;;;;;;5055448;28;20048;-82
2021/09/18 00:21:45;;;;;;;17.00;10.93;;;5.90;91.80;;;;;;5055690;28;20108;-81
2021/09/18 00:24:10;;;;;;;24.60;11.90;;;5.80;91.70;;;;;;5055392;28;20490;-81
2021/09/18 00:26:37;;;;;;;13.98;11.13;;;5.80;91.90;;;;;;5055725;28;20025;-81
2021/09/18 00:29:04;;;;;;;15.38;11.32;;;5.80;92.00;;;;;;5055320;28;20029;-81
2021/09/18 00:31:30;;;;;;;14.98;10.70;;;5.70;92.00;;;;;;5055368;28;20044;-83
2021/09/18 00:33:56;;;;;;;15.48;10.93;;;5.70;92.10;;;;;;5054070;28;20083;-80
2021/09/18 00:36:22;;;;;;;14.50;9.68;;;5.70;92.10;;;;;;5055582;28;20025;-82
2021/09/18 00:38:49;;;;;;;12.10;8.32;;;5.70;92.30;;;;;;5055198;28;20063;-81
2021/09/18 00:41:15;;;;;;;12.55;8.60;;;5.70;92.20;;;;;;5055146;28;20128;-81
2021/09/18 00:43:41;;;;;;;13.07;8.07;;;5.60;92.30;;;;;;5055260;28;20017;-82
2021/09/18 00:46:07;;;;;;;12.93;8.18;;;5.60;92.30;;;;;;5055238;28;20029;-81
2021/09/18 00:48:33;;;;;;;14.48;8.30;;;5.60;92.30;;;;;;5056110;28;20024;-81
2021/09/18 00:50:59;;;;;;;14.88;7.80;;;5.60;92.30;;;;;;5053715;28;20475;-81
2021/09/18 00:53:25;;;;;;;10.50;6.40;;;5.60;92.30;;;;;;5054766;28;20057;-80
2021/09/18 00:55:51;;;;;;;8.77;6.43;;;5.60;92.40;;;;;;5054859;28;20102;-81
2021/09/18 00:58:17;;;;;;;13.05;6.57;;;5.50;92.40;;;;;;5054575;28;20154;-81
2021/09/18 01:00:43;;;;;;;14.27;6.93;;;5.50;92.40;;;;;;5054729;28;20377;-81
2021/09/18 01:03:09;;;;;;;10.65;7.15;;;5.50;92.50;;;;;;5053216;28;20116;-81
2021/09/18 01:05:36;;;;;;;11.52;7.90;;;5.50;92.50;;;;;;5055198;28;20029;-81
2021/09/18 01:08:03;;;;;;;9.05;5.85;;;5.50;92.60;;;;;;5054504;28;20031;-82
2021/09/18 01:10:29;;;;;;;14.13;7.28;;;5.40;92.60;;;;;;5054759;28;20386;-81
2021/09/18 01:13:21;;;;;;;9.68;5.97;;;5.40;92.60;;;;;;5054553;28;20086;-81
2021/09/18 01:15:49;;;;;;;7.20;5.30;;;5.30;92.70;;;;;;5047439;28;20037;-81
2021/09/18 01:18:16;;;;;;;9.88;5.78;;;5.30;92.80;;;;;;5054425;28;20017;-79
2021/09/18 01:20:43;;;;;;;9.30;5.50;;;5.30;92.80;;;;;;5054015;28;20061;-81
2021/09/18 01:23:10;;;;;;;11.90;5.63;;;5.30;92.90;;;;;;5054195;28;20341;-81
2021/09/18 01:25:39;;;;;;;11.70;6.50;;;5.30;92.90;;;;;;5054903;28;20033;-81
2021/09/18 01:28:06;;;;;;;9.27;5.57;;;5.30;92.90;;;;;;5054222;28;20021;-81
2021/09/18 01:30:34;;;;;;;8.77;5.40;;;5.30;93.20;;;;;;5054598;28;20104;-80
2021/09/18 01:33:02;;;;;;;8.00;5.57;;;5.30;93.00;;;;;;5054909;28;20397;-82
2021/09/18 01:35:28;;;;;;;;;;;5.20;93.00;;;;;;5055805;28;20111;-80
2021/09/18 01:37:54;;;;;;;7.20;4.93;;;5.20;92.80;;;;;;5054753;28;19947;-82
2021/09/18 01:40:25;;;;;;;8.55;5.00;;;5.20;93.00;;;;;;5054034;28;20021;-81
2021/09/18 01:42:51;;;;;;;14.05;5.32;;;5.10;93.10;;;;;;5054509;28;20363;-81
2021/09/18 01:45:17;;;;;;;10.02;5.80;;;5.10;93.20;;;;;;5053012;28;20040;-81
2021/09/18 01:47:47;;;;;;;9.57;5.53;;;5.10;93.30;;;;;;5054044;28;20048;-80
2021/09/18 01:50:30;;;;;;;9.90;4.88;;;5.10;93.40;;;;;;5053813;28;20424;-81
2021/09/18 01:53:02;;;;;;;8.98;5.35;;;5.10;93.40;;;;;;5055566;28;20390;-81
2021/09/18 01:55:28;;;;;;;6.72;5.28;;;5.10;93.40;;;;;;5054557;28;20390;-81
2021/09/18 01:57:56;;;;;;;7.00;4.70;;;5.10;93.40;;;;;;5054041;28;20036;-82
2021/09/18 02:00:22;;;;;;;;;;;5.10;93.50;;;;;;5054619;28;20024;-81
2021/09/18 02:02:48;;;;;;;9.45;4.93;;;5.10;93.40;;;;;;5059195;28;20298;-81
2021/09/18 02:05:19;;;;;;;7.95;4.75;;;5.00;93.40;;;;;;5062688;28;20025;-81
2021/09/18 02:07:45;;;;;;;6.32;4.68;;;5.00;93.40;;;;;;5058081;28;20423;-81
2021/09/18 02:10:14;;;;;;;7.03;5.13;;;5.00;93.50;;;;;;5057984;28;20021;-80
2021/09/18 02:12:40;;;;;;;12.30;5.78;;;5.00;93.60;;;;;;5053711;28;20075;-80
2021/09/18 02:15:08;;;;;;;8.57;5.10;;;4.90;93.60;;;;;;5053585;28;20049;-82
2021/09/18 02:17:34;;;;;;;8.23;4.93;;;4.90;93.70;;;;;;5053555;28;20025;-81
2021/09/18 02:20:01;;;;;;;8.73;5.72;;;4.90;93.70;;;;;;5053403;28;20009;-81
2021/09/18 02:22:27;;;;;;;10.50;5.85;;;4.90;93.80;;;;;;5057675;28;20029;-80
2021/09/18 02:24:53;;;;;;;7.90;4.78;;;4.90;93.80;;;;;;5053726;28;20081;-81
2021/09/18 02:27:18;;;;;;;8.15;5.82;;;4.80;93.70;;;;;;5053366;28;20028;-80
2021/09/18 02:29:44;;;;;;;8.32;5.25;;;4.80;93.80;;;;;;5053313;28;20020;-79
2021/09/18 02:32:10;;;;;;;7.53;4.72;;;4.90;93.80;;;;;;5052486;28;20032;-81
2021/09/18 02:34:36;;;;;;;7.50;5.30;;;4.80;93.80;;;;;;5053040;28;20495;-81
2021/09/18 02:37:02;;;;;;;7.85;5.22;;;4.90;93.80;;;;;;5053051;28;20414;-81
2021/09/18 02:39:28;;;;;;;8.75;5.10;;;4.80;93.80;;;;;;5053051;28;20033;-82
2021/09/18 02:41:54;;;;;;;6.32;5.00;;;4.80;93.80;;;;;;5056687;28;20241;-81
2021/09/18 02:44:19;;;;;;;8.77;5.25;;;4.80;93.80;;;;;;5043869;28;20111;-81
2021/09/18 02:46:45;;;;;;;8.68;5.90;;;4.80;93.90;;;;;;5053026;28;20044;-82
2021/09/18 02:49:11;;;;;;;8.30;5.55;;;4.80;93.80;;;;;;5053059;28;20102;-81
2021/09/18 02:51:37;;;;;;;7.55;4.78;;;4.80;93.80;;;;;;5052599;28;20581;-82
2021/09/18 02:54:04;;;;;;;13.35;4.95;;;4.80;93.80;;;;;;5053507;28;20017;-81
2021/09/18 02:56:30;;;;;;;9.63;5.75;;;4.80;93.70;;;;;;5058224;28;20016;-81
2021/09/18 02:58:56;;;;;;;7.30;5.53;;;4.80;93.80;;;;;;5054020;28;20040;-80
2021/09/18 03:01:21;;;;;;;6.68;4.60;;;4.80;93.80;;;;;;5051663;28;20108;-80
2021/09/18 03:03:47;;;;;;;9.45;5.32;;;4.70;93.80;;;;;;5052813;28;20041;-80
2021/09/18 03:06:13;;;;;;;11.13;4.78;;;4.70;93.80;;;;;;5052819;28;20021;-80
2021/09/18 03:08:39;;;;;;;8.63;4.57;;;4.70;93.80;;;;;;5052780;28;20078;-81
2021/09/18 03:11:05;;;;;;;8.80;5.72;;;4.70;93.80;;;;;;5052680;28;20021;-81
2021/09/18 03:13:31;;;;;;;9.15;6.20;;;4.70;93.80;;;;;;5042764;28;20025;-81
2021/09/18 03:15:57;;;;;;;8.30;5.57;;;4.70;93.80;;;;;;5052343;28;20381;-81
2021/09/18 03:18:22;;;;;;;10.90;5.43;;;4.70;93.80;;;;;;5051470;28;20036;-81
2021/09/18 03:20:49;;;;;;;12.10;5.38;;;4.70;93.80;;;;;;5053006;28;20438;-80
2021/09/18 03:23:14;;;;;;;8.88;4.90;;;4.70;93.80;;;;;;5052412;28;20394;-81
2021/09/18 03:25:43;;;;;;;7.40;4.90;;;4.70;93.80;;;;;;5052335;28;20021;-81
2021/09/18 03:28:09;;;;;;;6.82;4.93;;;4.70;93.80;;;;;;5052140;28;20028;-82
2021/09/18 03:30:35;;;;;;;11.18;6.00;;;4.70;93.70;;;;;;5052476;28;20021;-80
2021/09/18 03:33:01;;;;;;;8.35;5.35;;;4.70;93.80;;;;;;5052701;28;20047;-81
2021/09/18 03:35:27;;;;;;;6.13;5.10;;;4.70;93.70;;;;;;5059206;28;20043;-80
2021/09/18 03:37:53;;;;;;;10.27;5.22;;;4.70;93.70;;;;;;5079390;28;20058;-81
2021/09/18 03:40:19;;;;;;;8.13;5.82;;;4.80;93.70;;;;;;5052916;28;20032;-81
2021/09/18 03:42:45;;;;;;;10.18;5.30;;;4.80;93.60;;;;;;5054104;28;20051;-81
2021/09/18 03:45:11;;;;;;;11.15;5.35;;;4.80;93.50;;;;;;5053022;28;20092;-81
2021/09/18 03:47:37;;;;;;;8.60;4.72;;;4.80;93.30;;;;;;5046700;28;20025;-84
2021/09/18 03:50:05;;;;;;;7.82;4.78;;;4.90;93.20;;;;;;5056085;28;20537;-81
2021/09/18 03:52:31;;;;;;;9.43;5.85;;;4.90;93.10;;;;;;5038463;28;20552;-81
2021/09/18 03:54:57;;;;;;;6.85;5.32;;;4.90;93.10;;;;;;5057657;28;20029;-80
2021/09/18 03:57:23;;;;;;;9.35;5.30;;;5.00;93.20;;;;;;5061350;28;20052;-80
2021/09/18 03:59:49;;;;;;;5.47;3.92;;;5.10;93.30;;;;;;5056958;28;20089;-81
2021/09/18 04:02:15;;;;;;;11.02;5.63;;;5.10;93.10;;;;;;5063434;28;20159;-81
2021/09/18 04:04:40;;;;;;;6.70;4.38;;;5.20;93.30;;;;;;5059475;28;20024;-81
2021/09/18 04:07:06;;;;;;;11.57;5.70;;;5.50;93.20;;;;;;5056147;28;20029;-79
2021/09/18 04:09:32;;;;;;;6.15;4.28;;;5.90;92.80;;;;;;5055599;28;20096;-82
2021/09/18 04:11:58;;;;;;;6.57;5.00;;;6.30;92.20;;;;;;5048202;28;20421;-81
2021/09/18 04:14:24;;;;;;;7.90;4.95;;;6.70;91.20;;;;;;5054256;28;20454;-80
2021/09/18 04:16:49;;;;;;;7.07;5.05;;;7.00;90.10;;;;;;5055426;28;20108;-81
2021/09/18 04:19:15;;;;;;;6.25;4.97;;;7.20;87.40;;;;;;5055465;28;20097;-81
2021/09/18 04:21:41;;;;;;;7.13;4.95;;;7.20;86.60;;;;;;5055406;28;20347;-81
2021/09/18 04:24:07;;;;;;;8.55;5.88;;;7.10;85.70;;;;;;5054233;28;20036;-81
2021/09/18 04:26:33;;;;;;;10.10;5.43;;;6.80;85.90;;;;;;5055422;28;20033;-80
2021/09/18 04:29:00;;;;;;;8.50;5.05;;;6.60;86.70;;;;;;5055558;28;20040;-80
2021/09/18 04:31:26;;;;;;;8.48;5.03;;;6.30;87.80;;;;;;5055204;28;20116;-81
2021/09/18 04:33:52;;;;;;;9.07;4.82;;;6.00;89.00;;;;;;5055218;28;20096;-80
2021/09/18 04:36:18;;;;;;;8.00;5.75;;;5.80;89.80;;;;;;5055018;28;20025;-81
2021/09/18 04:38:44;;;;;;;9.38;5.38;;;5.60;90.40;;;;;;5055341;28;20082;-80
2021/09/18 04:41:10;;;;;;;10.15;4.65;;;5.50;90.50;;;;;;5055329;28;20509;-81
2021/09/18 04:43:36;;;;;;;11.88;6.10;;;5.40;90.70;;;;;;5055134;28;20016;-81
2021/09/18 04:46:02;;;;;;;9.30;5.07;;;5.40;91.00;;;;;;5055277;28;20100;-81
2021/09/18 04:48:28;;;;;;;8.80;5.95;;;5.40;91.20;;;;;;5055147;28;20029;-81
2021/09/18 04:50:54;;;;;;;10.00;5.13;;;5.50;91.30;;;;;;5055170;28;20056;-81
2021/09/18 04:53:20;;;;;;;8.30;6.10;;;5.60;91.20;;;;;;5054250;28;20486;-81
2021/09/18 04:55:46;;;;;;;5.20;4.50;;;5.80;91.00;;;;;;5054575;28;20383;-81
2021/09/18 04:58:12;;;;;;;9.52;5.18;;;6.00;90.80;;;;;;5054814;28;20486;-80
2021/09/18 05:00:38;;;;;;;9.10;5.35;;;5.90;90.60;;;;;;5054790;28;20028;-81
2021/09/18 05:03:04;;;;;;;8.60;6.00;;;5.90;90.60;;;;;;5055785;28;20100;-82
2021/09/18 05:05:30;;;;;;;8.77;5.32;;;5.90;90.60;;;;;;5055719;28;20083;-83
2021/09/18 05:07:56;;;;;;;9.45;6.38;;;5.90;90.40;;;;;;5055216;28;20013;-80
2021/09/18 05:10:22;;;;;;;7.45;6.13;;;5.90;90.50;;;;;;5049877;28;20026;-80
2021/09/18 05:12:47;;;;;;;7.50;6.20;;;5.90;90.60;;;;;;5053064;28;20064;-82
2021/09/18 05:15:13;;;;;;;8.52;5.03;;;5.90;90.30;;;;;;5054754;28;20119;-82
2021/09/18 05:17:40;;;;;;;7.85;5.43;;;5.90;90.30;;;;;;5054361;28;20025;-82
2021/09/18 05:20:06;;;;;;;7.20;5.13;;;6.00;90.20;;;;;;5054488;28;20524;-83
2021/09/18 05:22:32;;;;;;;7.00;5.70;;;5.90;90.10;;;;;;5054581;28;20493;-82
2021/09/18 05:24:58;;;;;;;8.85;5.97;;;6.00;90.20;;;;;;5054242;28;20021;-81
2021/09/18 05:27:24;;;;;;;7.00;4.47;;;6.00;90.20;;;;;;5054496;28;20021;-81
2021/09/18 05:29:50;;;;;;;5.80;4.30;;;6.00;90.20;;;;;;5054187;28;20032;-82
2021/09/18 05:32:16;;;;;;;13.63;5.00;;;6.00;90.10;;;;;;5054717;28;20036;-82
2021/09/18 05:34:42;;;;;;;6.13;4.85;;;6.00;90.00;;;;;;5053949;28;20497;-81
2021/09/18 05:37:08;;;;;;;6.63;4.70;;;6.10;90.00;;;;;;5055680;28;20116;-81
2021/09/18 05:39:34;;;;;;;9.85;5.20;;;6.10;89.80;;;;;;5055720;28;20017;-81
2021/09/18 05:42:00;;;;;;;10.55;5.38;;;6.10;89.70;;;;;;5054754;28;20025;-82
2021/09/18 05:44:25;;;;;;;8.82;5.97;;;6.20;90.00;;;;;;5053435;28;20060;-82
2021/09/18 05:46:51;;;;;;;10.75;5.57;;;6.30;89.90;;;;;;5053351;28;20025;-82
2021/09/18 05:49:17;;;;;;;9.43;6.95;;;6.40;89.60;;;;;;5053283;28;20394;-82
2021/09/18 05:51:43;;;;;;;7.13;5.50;;;6.50;89.10;;;;;;5053447;28;20041;-83
2021/09/18 05:54:09;;;;;;;6.78;5.07;;;6.60;88.90;;;;;;5055214;28;20032;-81
2021/09/18 05:56:35;;;;;;;9.07;5.60;;;6.60;88.60;;;;;;5061770;28;20017;-82
2021/09/18 05:59:02;;;;;;;7.53;4.20;;;6.70;88.30;;;;;;5055483;28;20478;-82
2021/09/18 06:01:29;;;;;;;6.63;4.50;;;6.80;88.00;;;;;;5056386;28;20497;-82
2021/09/18 06:03:55;;;;;;;6.93;4.45;;;6.80;87.10;;;;;;5053748;28;20024;-83
2021/09/18 06:06:21;;;;;;;8.10;4.50;;;6.80;87.20;;;;;;5054093;28;20033;-80
2021/09/18 06:08:47;;;;;;;5.43;4.18;;;6.90;87.00;;;;;;5052138;28;20025;-83
2021/09/18 06:11:13;;;;;;;7.93;3.97;;;6.90;87.10;;;;;;5053845;28;20028;-81
2021/09/18 06:13:39;;;;;;;6.85;3.85;;;7.00;86.60;;;;;;5053947;28;20029;-81
2021/09/18 06:16:05;;;;;;;7.85;3.92;;;7.10;86.20;;;;;;5052462;28;20100;-80
2021/09/18 06:18:31;;;;;;;5.70;3.72;;;7.10;85.90;;;;;;5052536;28;20135;-83
2021/09/18 06:20:59;;;;;;;6.03;4.15;;;7.20;85.50;;;;;;5069891;28;20024;-80
2021/09/18 06:23:26;;;;;;;5.65;3.47;;;7.40;85.40;;;;;;5067078;28;20045;-82
2021/09/18 06:25:52;;;;;;;9.03;4.73;;;7.50;84.50;;;;;;5054107;28;20496;-83
2021/09/18 06:28:18;;;;;;;5.75;3.58;;;7.50;84.30;;;;;;5053680;28;20270;-81
2021/09/18 06:30:45;;;;;;;7.93;4.30;;;7.50;83.90;;;;;;5053688;28;20432;-82
2021/09/18 06:33:10;;;;;;;15.32;3.88;;;7.50;83.40;;;;;;5054199;28;20044;-81
2021/09/18 06:35:37;;;;;;;6.15;3.45;;;7.40;83.40;;;;;;5054270;28;20032;-80
2021/09/18 06:38:03;;;;;;;9.93;3.60;;;7.50;83.90;;;;;;5053623;28;20017;-82
2021/09/18 06:40:28;;;;;;;7.82;4.05;;;7.50;83.70;;;;;;5053539;28;20028;-83
2021/09/18 06:42:55;;;;;;;8.82;4.57;;;7.60;83.30;;;;;;5053751;28;20127;-84
2021/09/18 06:45:20;;;;;;;7.25;4.10;;;7.60;84.20;;;;;;5054025;28;20013;-84
2021/09/18 06:47:46;;;;;;;7.43;4.20;;;7.70;83.40;;;;;;5053596;28;20039;-83
2021/09/18 06:50:12;;;;;;;7.78;4.03;;;7.80;82.80;;;;;;5052972;28;20095;-82
2021/09/18 06:52:39;;;;;;;6.18;4.22;;;8.00;82.70;;;;;;5053040;28;20443;-82
2021/09/18 06:55:06;;;;;;;9.30;3.70;;;8.10;82.40;;;;;;5054210;28;20437;-83
2021/09/18 06:57:38;;;;;;;12.23;5.22;;;8.20;81.30;;;;;;5058180;28;20029;-80
2021/09/18 07:00:05;;;;;;;5.97;4.03;;;8.20;81.00;;;;;;5053071;28;20051;-83
2021/09/18 07:02:31;;;;;;;7.60;4.38;;;8.30;79.90;;;;;;5035564;28;20033;-83
2021/09/18 07:04:57;;;;;;;4.07;3.67;;;8.30;79.60;;;;;;5054124;28;20081;-80
2021/09/18 07:07:28;;;;;;;8.60;3.92;;;8.40;80.00;;;;;;5039343;28;20021;-81
2021/09/18 07:09:54;;;;;;;7.30;3.72;;;9.20;80.20;;;;;;5053202;28;20013;-81
2021/09/18 07:12:20;;;;;;;3.92;3.30;;;10.80;76.80;;;;;;5053878;28;20033;-80
2021/09/18 07:14:46;;;;;;;10.05;4.53;;;11.90;71.20;;;;;;5055330;28;20017;-80
2021/09/18 07:17:12;;;;;;;8.98;3.45;;;12.00;68.10;;;;;;5054108;28;20082;-82
2021/09/18 07:19:37;;;;;;;7.95;3.22;;;12.80;68.10;;;;;;5053486;28;20017;-83
2021/09/18 07:22:03;;;;;;;4.47;3.10;;;13.50;63.10;;;;;;5052984;28;20017;-84
2021/09/18 07:24:32;;;;;;;6.70;3.90;;;13.50;61.30;;;;;;5053061;28;20397;-84
2021/09/18 07:26:59;;;;;;;5.32;3.42;;;14.30;60.10;;;;;;5053245;28;20028;-85
2021/09/18 07:29:25;;;;;;;6.10;3.88;;;15.40;55.90;;;;;;5052992;28;20043;-82
2021/09/18 07:31:51;;;;;;;5.75;3.03;;;16.30;53.60;;;;;;5059791;28;20029;-86
2021/09/18 07:34:17;;;;;;;4.55;3.35;;;16.90;50.60;;;;;;5063267;28;20454;-81
2021/09/18 07:36:43;;;;;;;8.57;2.85;;;17.20;48.80;;;;;;5053325;28;20017;-82
2021/09/18 07:39:09;;;;;;;5.38;3.42;;;17.30;48.50;;;;;;5052878;28;20029;-82
2021/09/18 07:41:35;;;;;;;4.78;3.60;;;17.90;47.40;;;;;;5053362;28;20435;-83
2021/09/18 07:44:01;;;;;;;6.15;3.30;;;18.40;45.90;;;;;;5053577;28;20036;-82
2021/09/18 07:46:28;;;;;;;5.45;3.92;;;18.60;45.90;;;;;;5052391;28;20033;-82
2021/09/18 07:48:55;;;;;;;8.88;3.38;;;19.10;44.10;;;;;;5052940;28;20070;-79
2021/09/18 07:51:20;;;;;;;4.93;3.50;;;19.30;43.50;;;;;;5052628;28;20410;-82
2021/09/18 07:53:46;;;;;;;4.05;3.28;;;19.80;43.00;;;;;;5054519;28;20318;-80
2021/09/18 07:56:12;;;;;;;8.10;3.75;;;20.00;41.80;;;;;;5054560;28;20074;-81
2021/09/18 07:58:38;;;;;;;7.25;4.05;;;19.70;40.80;;;;;;5056068;28;20087;-83
2021/09/18 08:01:04;;;;;;;6.78;3.55;;;19.50;41.90;;;;;;5052721;28;20100;-79
2021/09/18 08:03:30;;;;;;;8.55;3.25;;;19.60;42.00;;;;;;5051905;28;20489;-82
2021/09/18 08:05:55;;;;;;;5.90;4.35;;;19.80;40.30;;;;;;5040804;28;20017;-82
2021/09/18 08:08:21;;;;;;;6.38;3.55;;;18.50;41.60;;;;;;5052072;28;20447;-81
2021/09/18 08:10:47;;;;;;;4.88;3.78;;;17.70;43.40;;;;;;5042041;28;20029;-82
2021/09/18 08:13:13;;;;;;;4.00;3.45;;;17.20;45.90;;;;;;5054841;28;20033;-82
2021/09/18 08:15:39;;;;;;;6.25;3.97;;;17.40;45.30;;;;;;5030283;28;20025;-82
2021/09/18 08:18:05;;;;;;;11.07;4.22;;;16.50;45.10;;;;;;5048823;28;20025;-81
2021/09/18 08:20:31;;;;;;;8.55;3.63;;;15.30;47.30;;;;;;5049628;28;20096;-82
2021/09/18 08:22:57;;;;;;;6.95;3.28;;;14.70;49.50;;;;;;5051474;28;20032;-84
2021/09/18 08:25:23;;;;;;;4.78;3.13;;;15.10;50.30;;;;;;5043632;28;20053;-80
2021/09/18 08:27:49;;;;;;;4.65;2.53;;;16.00;48.60;;;;;;5047712;28;20021;-78
2021/09/18 08:30:16;;;;;;;4.70;2.67;;;17.00;47.00;;;;;;5055882;28;20033;-81
2021/09/18 08:32:42;;;;;;;5.60;3.47;;;17.70;44.50;;;;;;5054631;28;20127;-81
2021/09/18 08:35:09;;;;;;;5.33;3.20;;;17.10;45.30;;;;;;5055528;28;20372;-83
2021/09/18 08:37:35;;;;;;;4.72;2.78;;;17.30;45.90;;;;;;5054820;28;20036;-81
2021/09/18 08:40:02;;;;;;;5.97;3.05;;;16.90;43.80;;;;;;5055999;28;20017;-81
2021/09/18 08:42:28;;;;;;;5.55;2.25;;;15.90;45.80;;;;;;5057900;28;20029;-83
2021/09/18 08:44:55;;;;;;;3.83;2.53;;;14.70;48.00;;;;;;5055517;28;20395;-82
2021/09/18 08:47:23;;;;;;;4.82;2.50;;;14.50;49.20;;;;;;5057840;28;20288;-81
2021/09/18 08:49:49;;;;;;;5.28;2.53;;;14.00;49.80;;;;;;5056066;28;20551;-81
2021/09/18 08:52:15;;;;;;;5.75;2.63;;;13.30;51.50;;;;;;5056488;28;20039;-80
2021/09/18 08:54:42;;;;;;;5.60;2.78;;;12.80;53.00;;;;;;5055081;28;20088;-80
2021/09/18 08:57:11;;;;;;;4.78;2.70;;;12.60;54.10;;;;;;5054729;28;20029;-82
2021/09/18 08:59:38;;;;;;;4.68;3.00;;;12.40;54.60;;;;;;5053704;28;20440;-84
2021/09/18 09:02:31;;;;;;;6.78;2.60;;;12.90;55.50;;;;;;5053148;28;20111;-81
2021/09/18 09:05:09;;;;;;;7.30;3.63;;;13.50;53.30;;;;;;5045489;28;20474;-87
2021/09/18 09:07:35;;;;;;;3.53;2.22;;;13.20;53.30;;;;;;5061793;28;20031;-82
2021/09/18 09:10:04;;;;;;;5.47;2.92;;;13.70;54.00;;;;;;5052597;28;20461;-81
2021/09/18 09:12:34;;;;;;;7.20;4.38;;;14.00;53.20;;;;;;5050839;28;20036;-82
2021/09/18 09:15:03;;;;;;;6.97;3.72;;;14.10;52.00;;;;;;5054874;28;20063;-83
2021/09/18 09:17:31;;;;;;;9.30;2.95;;;14.10;51.60;;;;;;5054591;28;20478;-82
2021/09/18 09:19:58;;;;;;;4.50;2.85;;;13.90;52.10;;;;;;5053708;28;20021;-85
2021/09/18 09:22:42;;;;;;;3.53;2.80;;;13.60;52.60;;;;;;5056951;28;20021;-85
2021/09/18 09:25:29;;;;;;;5.55;2.67;;;13.90;53.20;;;;;;5034333;28;20068;-87
2021/09/18 09:27:57;;;;;;;4.63;2.38;;;14.70;51.50;;;;;;4984693;28;20117;-86
2021/09/18 09:30:29;;;;;;;4.70;2.55;;;15.40;50.00;;;;;;4973560;28;20074;-83
2021/09/18 09:32:55;;;;;;;5.28;2.53;;;15.70;47.90;;;;;;4957907;28;20074;-82
2021/09/18 09:35:20;;;;;;;3.80;2.53;;;15.40;48.60;;;;;;4974463;28;20027;-82
2021/09/18 09:37:54;;;;;;;3.47;2.47;;;15.00;48.90;;;;;;4972584;28;20288;-81
2021/09/18 09:40:36;;;;;;;4.18;3.13;;;14.80;50.20;;;;;;4957335;28;20543;-89
2021/09/18 09:43:04;;;;;;;5.30;2.65;;;15.20;50.20;;;;;;4971446;28;20023;-85
2021/09/18 09:45:30;;;;;;;5.00;3.30;;;15.30;48.60;;;;;;4974186;28;20092;-85
2021/09/18 09:48:08;;;;;;;3.43;3.10;;;14.60;49.50;;;;;;4974015;28;20497;-84
2021/09/18 09:50:35;;;;;;;6.63;3.00;;;15.30;50.00;;;;;;4973296;28;20544;-83
2021/09/18 09:53:01;;;;;;;3.85;2.70;;;16.20;48.40;;;;;;4973976;28;20547;-84
2021/09/18 09:55:28;;;;;;;5.93;3.13;;;16.30;47.70;;;;;;4973846;28;20027;-84
2021/09/18 09:58:02;;;;;;;5.28;3.78;;;15.30;48.30;;;;;;4974293;28;20525;-82
2021/09/18 10:00:39;;;;;;;6.35;4.25;;;14.50;50.40;;;;;;4974846;28;20030;-84
2021/09/18 10:03:05;;;;;;;;;;;14.00;51.80;;;;;;4975447;28;20396;-84
2021/09/18 10:05:32;;;;;;;5.07;3.28;;;14.60;52.00;;;;;;5035185;28;19905;-85
2021/09/18 10:07:59;;;;;;;6.45;3.00;;;14.70;51.20;;;;;;5056697;28;20021;-86
2021/09/18 10:10:26;;;;;;;5.65;3.10;;;14.60;51.70;;;;;;5065302;28;20029;-85
2021/09/18 10:12:54;;;;;;;8.50;3.97;;;14.60;51.60;;;;;;5055900;28;20033;-84
2021/09/18 10:15:23;;;;;;;5.85;3.47;;;14.00;52.10;;;;;;5053879;28;20017;-84
2021/09/18 10:17:50;;;;;;;6.30;3.78;;;13.30;53.20;;;;;;5055500;28;20417;-83
2021/09/18 10:25:38;;;;;;;5.25;2.92;;;12.70;55.60;;;;;;5054924;28;20044;-85
2021/09/18 10:28:14;;;;;;;4.65;3.38;;;12.30;56.20;;;;;;5054124;28;20024;-84
2021/09/18 10:30:44;;;;;;;5.57;3.40;;;12.00;57.10;;;;;;5054048;28;20048;-86
2021/09/18 10:33:27;;;;;;;4.55;2.92;;;11.70;58.20;;;;;;5053860;28;20057;-85
2021/09/18 10:35:59;;;;;;;5.85;3.53;;;11.60;58.50;;;;;;5036286;28;20021;-84
2021/09/18 10:38:27;;;;;;;6.15;3.65;;;11.60;59.30;;;;;;5058396;28;20020;-83
2021/09/18 10:41:18;;;;;;;3.72;3.20;;;11.50;59.40;;;;;;5060621;28;20021;-89
2021/09/18 10:43:57;;;;;;;4.30;3.35;;;11.50;59.50;;;;;;5052642;28;20093;-85
2021/09/18 10:46:49;;;;;;;6.30;3.35;;;11.60;59.90;;;;;;5060324;28;20075;-87
2021/09/18 10:49:43;;;;;;;5.45;3.50;;;11.70;59.70;;;;;;5063955;28;20059;-87
2021/09/18 10:52:18;;;;;;;5.95;3.30;;;11.80;59.30;;;;;;5035067;28;20561;-86
2021/09/18 10:55:05;;;;;;;4.63;3.95;;;11.70;59.50;;;;;;5053965;28;20032;-87
2021/09/18 10:57:51;;;;;;;6.25;3.55;;;11.60;59.80;;;;;;5049078;28;20017;-88
2021/09/18 11:00:20;;;;;;;7.47;3.47;;;11.60;60.00;;;;;;5047014;28;20060;-87
2021/09/18 11:03:04;;;;;;;7.22;4.28;;;11.50;60.00;;;;;;5069018;28;20021;-91
2021/09/18 11:05:36;;;;;;;7.40;3.40;;;11.50;60.50;;;;;;5056675;28;20025;-88
2021/09/18 11:08:16;;;;;;;4.90;4.00;;;11.40;60.80;;;;;;5043280;28;20087;-91
2021/09/18 11:10:53;;;;;;;6.78;4.15;;;11.40;61.30;;;;;;5045563;28;20024;-88
2021/09/18 11:13:26;;;;;;;5.50;3.65;;;11.40;61.70;;;;;;5066651;28;20048;-90
2021/09/18 11:15:55;;;;;;;7.53;3.88;;;11.40;61.30;;;;;;5062009;28;20017;-92
2021/09/18 11:18:31;;;;;;;9.25;4.50;;;11.30;61.50;;;;;;5068516;28;20025;-91
2021/09/18 11:21:17;;;;;;;7.50;3.88;;;11.30;61.70;;;;;;5070120;28;20021;-88
2021/09/18 11:23:46;;;;;;;11.07;4.83;;;11.30;61.80;;;;;;5056902;28;20053;-93
2021/09/18 11:26:41;;;;;;;6.15;4.28;;;11.30;62.30;;;;;;5052540;28;20060;-92
2021/09/18 11:29:12;;;;;;;5.93;4.30;;;11.30;62.30;;;;;;5059634;28;20024;-88
2021/09/18 11:31:59;;;;;;;8.63;4.70;;;11.20;61.80;;;;;;5063046;28;20082;-92
2021/09/18 11:34:52;;;;;;;11.10;4.55;;;11.00;61.70;;;;;;5039031;28;20049;-95
2021/09/18 11:37:39;;;;;;;6.47;4.28;;;10.80;62.30;;;;;;5029338;28;20035;-89
2021/09/18 11:40:25;;;;;;;5.38;4.15;;;10.80;62.90;;;;;;5055322;28;20037;-92
2021/09/18 11:42:56;;;;;;;5.50;4.45;;;10.70;63.00;;;;;;5043657;28;20459;-90
2021/09/18 11:45:23;;;;;;;8.18;5.13;;;10.70;63.30;;;;;;5053948;28;20028;-90
2021/09/18 11:47:59;;;;;;;7.70;5.22;;;10.80;63.30;;;;;;5057628;28;20021;-92
2021/09/18 11:50:39;;;;;;;9.23;4.13;;;10.70;63.20;;;;;;5058146;28;20108;-86
2021/09/18 11:53:10;;;;;;;10.50;5.03;;;10.50;63.40;;;;;;5052916;28;20049;-85
2021/09/18 11:55:42;;;;;;;7.30;4.72;;;10.50;63.90;;;;;;5053219;28;20009;-88
2021/09/18 11:58:15;;;;;;;8.85;5.55;;;10.40;64.20;;;;;;5058697;28;20067;-90
2021/09/18 12:00:49;;;;;;;8.80;5.00;;;10.40;64.30;;;;;;5056529;28;20028;-88
2021/09/18 12:03:39;;;;;;;6.28;4.60;;;10.40;64.50;;;;;;5057358;28;20028;-89
2021/09/18 12:06:10;;;;;;;7.93;4.57;;;10.40;64.50;;;;;;5057562;28;20557;-87
2021/09/18 12:08:38;;;;;;;7.05;4.75;;;10.30;64.50;;;;;;5060502;28;20029;-87
2021/09/18 12:11:07;;;;;;;7.03;3.83;;;10.20;64.90;;;;;;5057287;28;20017;-87
2021/09/18 12:13:34;;;;;;;10.63;4.57;;;10.20;64.90;;;;;;5044836;28;20483;-88
2021/09/18 12:16:02;;;;;;;6.03;3.83;;;10.30;65.10;;;;;;5056380;28;20108;-85
2021/09/18 12:18:38;;;;;;;7.97;4.38;;;10.40;64.60;;;;;;5058264;28;20048;-91
2021/09/18 12:21:06;;;;;;;8.95;4.78;;;10.40;64.60;;;;;;5058607;28;20041;-87
2021/09/18 12:23:38;;;;;;;8.25;4.35;;;10.50;65.20;;;;;;5039698;28;20482;-87
2021/09/18 12:26:06;;;;;;;8.85;4.60;;;10.70;64.50;;;;;;5058288;28;20029;-88
2021/09/18 12:28:34;;;;;;;;;;;10.80;64.10;;;;;;5043930;28;20028;-87
2021/09/18 12:31:17;;;;;;;7.10;3.30;;;10.80;63.60;;;;;;5061387;28;19909;-88
2021/09/18 12:33:43;;;;;;;7.03;4.93;;;10.70;63.80;;;;;;5052482;28;20029;-88
2021/09/18 12:36:15;;;;;;;7.55;4.47;;;10.50;64.20;;;;;;5064345;28;20051;-89
2021/09/18 12:38:42;;;;;;;8.63;4.03;;;10.30;65.20;;;;;;5051684;28;20053;-89
2021/09/18 12:41:11;;;;;;;5.50;4.18;;;10.30;65.40;;;;;;5040926;28;20513;-90
2021/09/18 12:43:37;;;;;;;6.13;3.88;;;10.30;65.20;;;;;;5059926;28;20078;-90
2021/09/18 12:46:14;;;;;;;9.95;4.55;;;10.30;65.20;;;;;;5064873;28;20046;-89
2021/09/18 12:48:41;;;;;;;9.30;4.70;;;10.30;65.10;;;;;;5065050;28;20070;-91
2021/09/18 12:51:17;;;;;;;5.95;4.47;;;10.20;65.40;;;;;;5053896;28;20282;-88
2021/09/18 12:53:52;;;;;;;8.20;4.80;;;10.30;66.00;;;;;;5054539;28;20082;-89
2021/09/18 12:56:27;;;;;;;12.48;5.90;;;10.40;65.90;;;;;;5030023;28;20080;-84
2021/09/18 12:59:13;;;;;;;10.10;5.28;;;10.30;65.70;;;;;;5056436;28;20074;-82
2021/09/18 13:01:50;;;;;;;7.95;4.30;;;10.40;66.10;;;;;;5055979;28;20026;-83
2021/09/18 13:04:27;;;;;;;6.22;5.00;;;10.30;65.80;;;;;;5056288;28;20017;-91